createdAt,value
2018-10-21T00:00:13.571Z,7.50
2018-10-21T00:02:42.100Z,7.40
2018-10-21T00:05:11.475Z,7.40
2018-10-21T00:07:40.320Z,7.30
2018-10-21T00:10:10.049Z,7.30
2018-10-21T00:12:39.672Z,7.30
2018-10-21T00:15:09.545Z,7.30
2018-10-21T00:17:39.052Z,7.30
2018-10-21T00:20:08.507Z,7.20
2018-10-21T00:22:37.004Z,7.30
2018-10-21T00:25:06.138Z,7.40
2018-10-21T00:27:34.610Z,7.40
2018-10-21T00:30:03.127Z,7.40
2018-10-21T00:32:37.015Z,7.50
2018-10-21T00:35:06.263Z,7.50
2018-10-21T00:37:35.626Z,7.50
2018-10-21T00:40:04.186Z,7.50
2018-10-21T00:42:32.654Z,7.40
2018-10-21T00:45:01.137Z,7.40
2018-10-21T00:47:29.597Z,7.40
2018-10-21T00:49:58.144Z,7.50
2018-10-21T00:52:27.276Z,7.50
2018-10-21T00:54:55.787Z,7.50
2018-10-21T00:57:24.266Z,7.50
2018-10-21T00:59:52.840Z,7.60
2018-10-21T01:02:21.314Z,7.60
2018-10-21T01:04:49.833Z,7.60
2018-10-21T01:07:18.404Z,7.60
2018-10-21T01:09:46.837Z,7.70
2018-10-21T01:12:15.341Z,7.70
2018-10-21T01:14:43.920Z,7.80
2018-10-21T01:17:12.510Z,7.80
2018-10-21T01:19:41.642Z,7.90
2018-10-21T01:22:10.154Z,7.90
2018-10-21T01:24:38.639Z,8.00
2018-10-21T01:27:07.247Z,8.00
2018-10-21T01:29:35.782Z,8.00
2018-10-21T01:32:04.482Z,8.00
2018-10-21T01:34:32.979Z,8.00
2018-10-21T01:37:01.539Z,8.00
2018-10-21T01:40:49.532Z,8.00
2018-10-21T01:43:20.187Z,7.90
2018-10-21T01:45:48.667Z,7.80
2018-10-21T01:48:18.470Z,7.80
2018-10-21T01:50:47.050Z,7.70
2018-10-21T01:53:16.439Z,7.70
2018-10-21T01:55:44.945Z,7.60
2018-10-21T01:58:13.389Z,7.60
2018-10-21T02:00:42.346Z,7.60
2018-10-21T02:03:11.084Z,7.50
2018-10-21T02:05:40.117Z,7.40
2018-10-21T02:08:08.558Z,7.40
2018-10-21T02:10:37.050Z,7.30
2018-10-21T02:13:05.725Z,7.30
2018-10-21T02:15:34.192Z,7.20
2018-10-21T02:18:02.855Z,7.20
2018-10-21T02:20:31.405Z,7.10
2018-10-21T02:22:59.878Z,7.10
2018-10-21T02:25:28.397Z,7.10
2018-10-21T02:27:56.838Z,7.10
2018-10-21T02:30:28.436Z,7.00
2018-10-21T02:32:57.989Z,7.00
2018-10-21T02:35:26.467Z,7.00
2018-10-21T02:37:55.345Z,6.90
2018-10-21T02:41:35.891Z,6.90
2018-10-21T02:44:05.276Z,6.90
2018-10-21T02:46:34.160Z,6.90
2018-10-21T02:49:03.815Z,6.90
2018-10-21T02:51:32.389Z,6.90
2018-10-21T02:54:00.827Z,6.90
2018-10-21T02:56:29.309Z,6.90
2018-10-21T02:58:57.910Z,6.90
2018-10-21T03:01:26.524Z,6.90
2018-10-21T03:03:54.973Z,6.90
2018-10-21T03:06:23.579Z,6.90
2018-10-21T03:08:52.217Z,6.90
2018-10-21T03:11:20.859Z,6.90
2018-10-21T03:13:49.453Z,6.90
2018-10-21T03:16:17.909Z,6.80
2018-10-21T03:18:46.419Z,6.80
2018-10-21T03:21:14.992Z,6.80
2018-10-21T03:23:43.977Z,6.80
2018-10-21T03:26:12.491Z,6.80
2018-10-21T03:28:41.069Z,6.70
2018-10-21T03:31:09.540Z,6.70
2018-10-21T03:33:38.078Z,6.70
2018-10-21T03:36:06.677Z,6.60
2018-10-21T03:38:35.282Z,6.60
2018-10-21T03:41:03.752Z,6.60
2018-10-21T03:43:32.209Z,6.60
2018-10-21T03:46:00.779Z,6.60
2018-10-21T03:48:29.295Z,6.50
2018-10-21T03:50:57.896Z,6.50
2018-10-21T03:53:26.387Z,6.60
2018-10-21T03:55:54.944Z,6.50
2018-10-21T03:58:23.448Z,6.50
2018-10-21T04:00:51.955Z,6.50
2018-10-21T04:03:20.679Z,6.40
2018-10-21T04:05:49.115Z,6.40
2018-10-21T04:08:17.597Z,6.50
2018-10-21T04:10:46.027Z,6.50
2018-10-21T04:13:14.508Z,6.50
2018-10-21T04:15:42.984Z,6.60
2018-10-21T04:18:11.561Z,6.60
2018-10-21T04:20:40.065Z,6.60
2018-10-21T04:23:08.558Z,6.60
2018-10-21T04:25:38.133Z,6.60
2018-10-21T04:28:07.229Z,6.60
2018-10-21T04:30:39.844Z,6.60
2018-10-21T04:33:17.808Z,6.60
2018-10-21T04:35:46.304Z,6.60
2018-10-21T04:38:30.489Z,6.60
2018-10-21T04:40:59.017Z,6.60
2018-10-21T04:43:27.487Z,6.70
2018-10-21T04:45:56.040Z,6.70
2018-10-21T04:48:24.500Z,6.70
2018-10-21T04:50:52.980Z,6.70
2018-10-21T04:53:21.457Z,6.70
2018-10-21T04:55:49.924Z,6.80
2018-10-21T04:58:18.393Z,6.80
2018-10-21T05:00:46.912Z,6.80
2018-10-21T05:03:15.328Z,6.80
2018-10-21T05:05:43.833Z,6.80
2018-10-21T05:08:12.367Z,6.80
2018-10-21T05:10:40.840Z,6.90
2018-10-21T05:13:10.188Z,6.90
2018-10-21T05:15:39.803Z,6.90
2018-10-21T05:18:08.384Z,7.00
2018-10-21T05:20:36.840Z,7.00
2018-10-21T05:23:05.457Z,7.00
2018-10-21T05:25:33.954Z,7.10
2018-10-21T05:28:02.468Z,7.10
2018-10-21T05:30:31.036Z,7.20
2018-10-21T05:32:59.503Z,7.30
2018-10-21T05:35:27.988Z,7.30
2018-10-21T05:37:56.555Z,7.40
2018-10-21T05:40:25.067Z,7.40
2018-10-21T05:42:53.521Z,7.40
2018-10-21T05:45:22.000Z,7.40
2018-10-21T05:47:50.460Z,7.40
2018-10-21T05:50:18.899Z,7.40
2018-10-21T05:52:47.408Z,7.40
2018-10-21T05:55:16.303Z,7.40
2018-10-21T05:57:44.785Z,7.40
2018-10-21T06:00:16.385Z,7.40
2018-10-21T06:02:45.087Z,7.40
2018-10-21T06:05:24.771Z,7.30
2018-10-21T06:07:53.236Z,7.40
2018-10-21T06:10:21.703Z,7.40
2018-10-21T06:12:50.207Z,7.40
2018-10-21T06:15:18.669Z,7.40
2018-10-21T06:17:47.244Z,7.40
2018-10-21T06:20:24.269Z,7.40
2018-10-21T06:22:53.770Z,7.40
2018-10-21T06:25:22.269Z,7.40
2018-10-21T06:27:51.687Z,7.50
2018-10-21T06:30:20.152Z,7.50
2018-10-21T06:32:48.631Z,7.50
2018-10-21T06:35:17.132Z,7.50
2018-10-21T06:37:45.785Z,7.60
2018-10-21T06:40:14.927Z,7.60
2018-10-21T06:42:43.408Z,7.70
2018-10-21T06:45:12.464Z,7.80
2018-10-21T06:47:41.099Z,7.80
2018-10-21T06:50:13.969Z,7.90
2018-10-21T06:52:42.436Z,7.90
2018-10-21T06:55:11.126Z,8.00
2018-10-21T06:57:39.641Z,8.00
2018-10-21T07:00:08.597Z,8.10
2018-10-21T07:02:37.287Z,8.10
2018-10-21T07:05:15.683Z,8.10
2018-10-21T07:07:44.150Z,8.10
2018-10-21T07:10:12.689Z,8.10
2018-10-21T07:12:41.373Z,8.20
2018-10-21T07:15:10.038Z,8.20
2018-10-21T07:17:38.471Z,8.30
2018-10-21T07:20:06.995Z,8.40
2018-10-21T07:22:35.427Z,8.50
2018-10-21T07:25:03.924Z,8.60
2018-10-21T07:27:33.113Z,8.70
2018-10-21T07:30:01.635Z,8.80
2018-10-21T07:32:30.552Z,8.90
2018-10-21T07:34:59.192Z,9.00
2018-10-21T07:37:27.654Z,9.10
2018-10-21T07:39:56.272Z,9.20
2018-10-21T07:42:24.804Z,9.30
2018-10-21T07:44:53.252Z,9.30
2018-10-21T07:47:21.748Z,9.40
2018-10-21T07:49:50.240Z,9.50
2018-10-21T07:52:18.740Z,9.50
2018-10-21T07:54:47.362Z,9.60
2018-10-21T07:57:17.483Z,9.60
2018-10-21T07:59:46.787Z,9.70
2018-10-21T08:02:15.708Z,9.80
2018-10-21T08:04:44.307Z,9.90
2018-10-21T08:08:22.249Z,9.90
2018-10-21T08:10:50.798Z,10.00
2018-10-21T08:13:22.911Z,10.20
2018-10-21T08:15:51.487Z,10.20
2018-10-21T08:18:20.624Z,10.30
2018-10-21T08:20:50.983Z,10.40
2018-10-21T08:23:19.924Z,10.50
2018-10-21T08:25:50.126Z,10.50
2018-10-21T08:28:18.925Z,10.60
2018-10-21T08:30:48.181Z,10.70
2018-10-21T08:33:16.752Z,10.70
2018-10-21T08:35:45.210Z,10.90
2018-10-21T08:38:14.066Z,10.90
2018-10-21T08:40:42.655Z,11.00
2018-10-21T08:43:11.289Z,11.00
2018-10-21T08:45:39.736Z,11.10
2018-10-21T08:48:08.303Z,11.20
2018-10-21T08:50:36.753Z,11.20
2018-10-21T08:53:05.319Z,11.20
2018-10-21T08:55:33.776Z,11.30
2018-10-21T08:58:02.309Z,11.30
2018-10-21T09:00:30.800Z,11.40
2018-10-21T09:02:59.276Z,11.40
2018-10-21T09:05:28.730Z,11.50
2018-10-21T09:07:57.343Z,11.60
2018-10-21T09:10:25.860Z,11.70
2018-10-21T09:12:54.409Z,11.90
2018-10-21T09:15:22.972Z,12.00
2018-10-21T09:17:51.692Z,12.20
2018-10-21T09:20:20.185Z,12.30
2018-10-21T09:22:48.628Z,12.40
2018-10-21T09:25:17.180Z,12.60
2018-10-21T09:27:45.727Z,12.80
2018-10-21T09:30:15.732Z,12.80
2018-10-21T09:32:44.228Z,12.90
2018-10-21T09:35:19.499Z,12.90
2018-10-21T09:37:47.960Z,13.00
2018-10-21T09:40:18.269Z,13.10
2018-10-21T09:42:47.377Z,13.00
2018-10-21T09:45:17.391Z,13.10
2018-10-21T09:47:46.200Z,13.10
2018-10-21T09:50:14.996Z,13.40
2018-10-21T09:52:43.520Z,13.40
2018-10-21T09:55:17.379Z,13.30
2018-10-21T09:57:46.928Z,13.40
2018-10-21T10:00:20.808Z,13.50
2018-10-21T10:02:54.634Z,13.60
2018-10-21T10:05:23.373Z,13.70
2018-10-21T10:07:52.283Z,13.80
2018-10-21T10:10:20.804Z,14.00
2018-10-21T10:12:49.311Z,14.00
2018-10-21T10:15:18.099Z,14.00
2018-10-21T10:17:46.597Z,14.20
2018-10-21T10:20:15.212Z,14.50
2018-10-21T10:22:43.747Z,14.70
2018-10-21T10:25:12.775Z,15.10
2018-10-21T10:27:41.616Z,15.30
2018-10-21T10:30:11.399Z,15.70
2018-10-21T10:32:41.247Z,15.60
2018-10-21T10:35:10.635Z,15.40
2018-10-21T10:37:39.546Z,15.30
2018-10-21T10:40:09.548Z,15.80
2018-10-21T10:42:37.996Z,16.30
2018-10-21T10:45:07.242Z,16.60
2018-10-21T10:47:35.909Z,17.20
2018-10-21T10:50:04.860Z,17.10
2018-10-21T10:52:33.412Z,17.60
2018-10-21T10:55:02.317Z,18.00
2018-10-21T10:57:30.879Z,18.40
2018-10-21T10:59:59.596Z,18.60
2018-10-21T11:02:28.046Z,18.90
2018-10-21T11:04:56.552Z,19.30
2018-10-21T11:07:25.125Z,19.70
2018-10-21T11:09:53.720Z,19.70
2018-10-21T11:12:22.462Z,19.40
2018-10-21T11:14:50.943Z,19.30
2018-10-21T11:17:19.523Z,19.50
2018-10-21T11:19:48.110Z,19.70
2018-10-21T11:22:16.687Z,19.40
2018-10-21T11:24:45.143Z,18.90
2018-10-21T11:27:13.704Z,18.50
2018-10-21T11:29:42.278Z,18.40
2018-10-21T11:32:10.773Z,18.30
2018-10-21T11:34:39.726Z,18.20
2018-10-21T11:37:08.603Z,18.00
2018-10-21T11:39:37.350Z,18.10
2018-10-21T11:42:06.524Z,18.30
2018-10-21T11:44:35.026Z,18.50
2018-10-21T11:47:03.549Z,18.50
2018-10-21T11:49:32.055Z,18.60
2018-10-21T11:52:00.664Z,18.80
2018-10-21T11:54:29.368Z,18.20
2018-10-21T11:56:57.857Z,18.50
2018-10-21T11:59:26.344Z,18.60
2018-10-21T12:01:54.832Z,18.30
2018-10-21T12:04:23.334Z,18.20
2018-10-21T12:06:51.810Z,18.50
2018-10-21T12:09:20.293Z,18.60
2018-10-21T12:11:48.747Z,19.10
2018-10-21T12:14:17.245Z,19.10
2018-10-21T12:16:45.729Z,19.00
2018-10-21T12:19:14.332Z,19.30
2018-10-21T12:21:42.957Z,19.60
2018-10-21T12:24:11.489Z,19.30
2018-10-21T12:26:40.058Z,19.30
2018-10-21T12:29:08.652Z,19.40
2018-10-21T12:31:37.004Z,19.90
2018-10-21T12:34:05.574Z,20.10
2018-10-21T12:36:34.072Z,19.50
2018-10-21T12:39:02.663Z,18.90
2018-10-21T12:41:31.111Z,18.70
2018-10-21T12:43:59.586Z,18.50
2018-10-21T12:46:28.063Z,18.60
2018-10-21T12:48:56.595Z,18.90
2018-10-21T12:51:25.102Z,19.20
2018-10-21T12:53:53.588Z,19.30
2018-10-21T12:56:22.067Z,18.30
2018-10-21T12:58:50.560Z,18.10
2018-10-21T13:01:19.083Z,18.00
2018-10-21T13:03:47.588Z,17.60
2018-10-21T13:06:16.134Z,17.50
2018-10-21T13:08:44.789Z,17.40
2018-10-21T13:11:13.892Z,17.50
2018-10-21T13:13:42.478Z,17.50
2018-10-21T13:16:11.183Z,17.50
2018-10-21T13:18:39.777Z,17.50
2018-10-21T13:21:08.299Z,17.50
2018-10-21T13:23:36.833Z,17.60
2018-10-21T13:26:05.736Z,17.40
2018-10-21T13:28:34.387Z,17.20
2018-10-21T13:31:02.940Z,17.10
2018-10-21T13:33:31.440Z,17.00
2018-10-21T13:36:00.171Z,17.20
2018-10-21T13:38:28.762Z,17.30
2018-10-21T13:40:57.221Z,17.30
2018-10-21T13:43:25.692Z,17.20
2018-10-21T13:45:54.194Z,17.50
2018-10-21T13:48:22.631Z,17.40
2018-10-21T13:50:51.131Z,17.10
2018-10-21T13:53:19.706Z,16.90
2018-10-21T13:55:48.185Z,17.00
2018-10-21T13:58:17.048Z,17.20
2018-10-21T14:00:45.673Z,17.10
2018-10-21T14:03:14.086Z,17.10
2018-10-21T14:05:42.570Z,16.90
2018-10-21T14:08:11.059Z,16.90
2018-10-21T14:10:39.696Z,16.60
2018-10-21T14:13:08.179Z,16.40
2018-10-21T14:15:36.751Z,16.30
2018-10-21T14:18:05.332Z,16.30
2018-10-21T14:20:33.835Z,16.40
2018-10-21T14:23:02.406Z,16.50
2018-10-21T14:25:30.909Z,16.60
2018-10-21T14:27:59.378Z,16.50
2018-10-21T14:30:27.927Z,16.50
2018-10-21T14:32:56.602Z,16.40
2018-10-21T14:35:25.228Z,16.20
2018-10-21T14:37:53.856Z,16.10
2018-10-21T14:40:22.436Z,15.90
2018-10-21T14:42:50.904Z,15.90
2018-10-21T14:45:19.655Z,15.70
2018-10-21T14:47:48.202Z,15.70
2018-10-21T14:50:17.415Z,15.70
2018-10-21T14:52:46.148Z,15.60
2018-10-21T14:55:14.938Z,15.60
2018-10-21T14:57:43.367Z,15.60
2018-10-21T15:00:13.803Z,15.70
2018-10-21T15:02:42.559Z,15.60
2018-10-21T15:05:12.401Z,15.70
2018-10-21T15:07:42.009Z,15.70
2018-10-21T15:10:11.229Z,15.60
2018-10-21T15:12:39.697Z,15.60
2018-10-21T15:15:09.441Z,15.40
2018-10-21T15:17:38.217Z,15.40
2018-10-21T15:20:07.880Z,15.20
2018-10-21T15:22:36.351Z,15.20
2018-10-21T15:25:05.731Z,15.10
2018-10-21T15:27:34.230Z,15.10
2018-10-21T15:30:02.890Z,15.10
2018-10-21T15:32:31.549Z,15.00
2018-10-21T15:35:00.092Z,15.00
2018-10-21T15:37:28.606Z,14.90
2018-10-21T15:39:57.204Z,14.80
2018-10-21T15:42:25.676Z,14.80
2018-10-21T15:44:54.200Z,14.70
2018-10-21T15:47:22.874Z,14.60
2018-10-21T15:49:51.303Z,14.60
2018-10-21T15:52:20.160Z,14.50
2018-10-21T15:54:48.625Z,14.40
2018-10-21T15:57:17.118Z,14.30
2018-10-21T15:59:45.902Z,14.20
2018-10-21T16:02:20.901Z,14.20
2018-10-21T16:05:06.128Z,14.10
2018-10-21T16:07:34.712Z,14.00
2018-10-21T16:10:03.432Z,13.80
2018-10-21T16:12:31.873Z,13.70
2018-10-21T16:15:00.673Z,13.70
2018-10-21T16:17:29.131Z,13.60
2018-10-21T16:19:57.640Z,13.50
2018-10-21T16:22:26.623Z,13.40
2018-10-21T16:24:55.232Z,13.40
2018-10-21T16:27:23.740Z,13.30
2018-10-21T16:29:52.495Z,13.20
2018-10-21T16:32:21.115Z,13.10
2018-10-21T16:34:49.615Z,13.00
2018-10-21T16:37:18.107Z,12.90
2018-10-21T16:39:46.565Z,12.90
2018-10-21T16:42:15.104Z,12.80
2018-10-21T16:44:43.919Z,12.70
2018-10-21T16:47:12.372Z,12.70
2018-10-21T16:49:40.823Z,12.60
2018-10-21T16:52:09.321Z,12.50
2018-10-21T16:54:37.838Z,12.40
2018-10-21T16:57:06.449Z,12.30
2018-10-21T16:59:35.003Z,12.20
2018-10-21T17:02:03.446Z,12.20
2018-10-21T17:04:31.888Z,12.10
2018-10-21T17:07:00.659Z,12.00
2018-10-21T17:09:29.151Z,12.00
2018-10-21T17:11:57.659Z,11.80
2018-10-21T17:14:26.217Z,11.80
2018-10-21T17:16:54.668Z,11.70
2018-10-21T17:19:23.140Z,11.60
2018-10-21T17:21:51.619Z,11.60
2018-10-21T17:24:20.174Z,11.50
2018-10-21T17:26:48.895Z,11.50
2018-10-21T17:29:17.443Z,11.40
2018-10-21T17:31:45.923Z,11.30
2018-10-21T17:34:14.502Z,11.30
2018-10-21T17:36:43.008Z,11.20
2018-10-21T17:39:14.160Z,11.10
2018-10-21T17:41:45.859Z,11.10
2018-10-21T17:44:14.474Z,11.00
2018-10-21T17:46:43.055Z,11.00
2018-10-21T17:49:11.597Z,10.90
2018-10-21T17:51:40.145Z,10.80
2018-10-21T17:54:08.731Z,10.70
2018-10-21T17:56:42.713Z,10.70
2018-10-21T17:59:12.321Z,10.70
2018-10-21T18:01:40.872Z,10.70
2018-10-21T18:04:09.459Z,10.60
2018-10-21T18:06:38.059Z,10.60
2018-10-21T18:09:08.708Z,10.60
2018-10-21T18:11:37.856Z,10.60
2018-10-21T18:14:06.562Z,10.50
2018-10-21T18:16:35.301Z,10.50
2018-10-21T18:19:03.906Z,10.50
2018-10-21T18:21:32.385Z,10.40
2018-10-21T18:24:01.035Z,10.40
2018-10-21T18:26:29.578Z,10.30
2018-10-21T18:28:58.270Z,10.30
2018-10-21T18:31:26.780Z,10.20
2018-10-21T18:33:55.332Z,10.20
2018-10-21T18:36:23.880Z,10.20
2018-10-21T18:38:52.417Z,10.20
2018-10-21T18:41:20.928Z,10.10
2018-10-21T18:43:49.425Z,10.10
2018-10-21T18:46:17.946Z,10.00
2018-10-21T18:48:48.540Z,10.00
2018-10-21T18:51:16.993Z,9.90
2018-10-21T18:53:45.466Z,9.90
2018-10-21T18:56:13.932Z,9.90
2018-10-21T18:58:42.426Z,9.80
2018-10-21T19:01:11.030Z,9.80
2018-10-21T19:03:39.408Z,9.70
2018-10-21T19:06:08.017Z,9.70
2018-10-21T19:08:36.733Z,9.70
2018-10-21T19:11:05.272Z,9.60
2018-10-21T19:13:34.263Z,9.60
2018-10-21T19:16:02.743Z,9.50
2018-10-21T19:18:31.392Z,9.50
2018-10-21T19:20:59.917Z,9.40
2018-10-21T19:23:28.434Z,9.40
2018-10-21T19:25:56.916Z,9.40
2018-10-21T19:28:25.398Z,9.30
2018-10-21T19:30:54.143Z,9.20
2018-10-21T19:33:22.613Z,9.20
2018-10-21T19:35:51.145Z,9.20
2018-10-21T19:38:20.103Z,9.10
2018-10-21T19:40:48.588Z,9.10
2018-10-21T19:43:17.219Z,9.10
2018-10-21T19:45:45.829Z,9.10
2018-10-21T19:48:14.343Z,9.00
2018-10-21T19:50:42.811Z,9.00
2018-10-21T19:53:11.385Z,9.00
2018-10-21T19:55:39.950Z,8.90
2018-10-21T19:58:09.000Z,8.90
2018-10-21T20:00:37.505Z,8.90
2018-10-21T20:03:05.985Z,8.90
2018-10-21T20:05:34.503Z,8.90
2018-10-21T20:08:03.253Z,8.80
2018-10-21T20:10:31.685Z,8.90
2018-10-21T20:13:00.191Z,8.80
2018-10-21T20:15:28.653Z,8.80
2018-10-21T20:17:57.758Z,8.80
2018-10-21T20:20:26.207Z,8.70
2018-10-21T20:22:54.671Z,8.60
2018-10-21T20:25:23.258Z,8.60
2018-10-21T20:27:51.983Z,8.60
2018-10-21T20:30:20.615Z,8.50
2018-10-21T20:32:49.252Z,8.50
2018-10-21T20:35:17.770Z,8.50
2018-10-21T20:37:46.265Z,8.50
2018-10-21T20:40:14.846Z,8.50
2018-10-21T20:42:44.521Z,8.40
2018-10-21T20:45:13.981Z,8.40
2018-10-21T20:47:42.499Z,8.40
2018-10-21T20:50:11.012Z,8.40
2018-10-21T20:52:39.705Z,8.30
2018-10-21T20:55:08.286Z,8.30
2018-10-21T20:57:37.348Z,8.30
2018-10-21T21:00:05.920Z,8.30
2018-10-21T21:02:34.447Z,8.30
2018-10-21T21:05:02.945Z,8.20
2018-10-21T21:07:31.413Z,8.20
2018-10-21T21:09:59.938Z,8.20
2018-10-21T21:12:28.449Z,8.20
2018-10-21T21:14:56.900Z,8.10
2018-10-21T21:17:25.381Z,8.10
2018-10-21T21:19:53.904Z,8.10
2018-10-21T21:22:22.364Z,8.00
2018-10-21T21:24:50.928Z,8.00
2018-10-21T21:27:19.528Z,8.00
2018-10-21T21:29:48.042Z,7.90
2018-10-21T21:32:16.621Z,7.90
2018-10-21T21:34:45.178Z,7.90
2018-10-21T21:37:14.291Z,7.80
2018-10-21T21:39:42.932Z,7.70
2018-10-21T21:42:11.472Z,7.60
2018-10-21T21:44:39.972Z,7.60
2018-10-21T21:47:08.541Z,7.60
2018-10-21T21:49:37.055Z,7.60
2018-10-21T21:52:05.601Z,7.60
2018-10-21T21:54:34.197Z,7.50
2018-10-21T21:57:02.706Z,7.50
2018-10-21T21:59:31.185Z,7.50
2018-10-21T22:01:59.707Z,7.50
2018-10-21T22:04:28.197Z,7.50
2018-10-21T22:06:56.782Z,7.40
2018-10-21T22:09:25.420Z,7.40
2018-10-21T22:11:54.052Z,7.40
2018-10-21T22:14:22.800Z,7.40
2018-10-21T22:16:51.263Z,7.40
2018-10-21T22:19:19.777Z,7.40
2018-10-21T22:21:48.823Z,7.40
2018-10-21T22:24:17.395Z,7.40
2018-10-21T22:26:45.827Z,7.30
2018-10-21T22:29:14.316Z,7.30
2018-10-21T22:31:42.827Z,7.40
2018-10-21T22:34:11.358Z,7.50
2018-10-21T22:36:39.836Z,7.60
2018-10-21T22:39:08.588Z,7.70
2018-10-21T22:41:37.375Z,7.70
2018-10-21T22:44:06.185Z,7.80
2018-10-21T22:46:34.635Z,7.80
2018-10-21T22:49:03.122Z,7.80
2018-10-21T22:51:31.609Z,7.80
2018-10-21T22:54:00.077Z,7.80
2018-10-21T22:56:28.567Z,7.80
2018-10-21T22:58:57.022Z,7.90
2018-10-21T23:01:25.530Z,7.90
2018-10-21T23:03:54.017Z,7.90
2018-10-21T23:06:22.490Z,7.90
2018-10-21T23:08:51.557Z,7.90
2018-10-21T23:11:20.085Z,7.90
2018-10-21T23:13:48.544Z,7.90
2018-10-21T23:16:17.198Z,7.90
2018-10-21T23:18:45.752Z,7.90
2018-10-21T23:21:14.174Z,7.90
2018-10-21T23:23:42.619Z,8.00
2018-10-21T23:26:11.243Z,8.00
2018-10-21T23:28:39.795Z,8.00
2018-10-21T23:31:08.535Z,8.10
2018-10-21T23:33:37.056Z,8.10
2018-10-21T23:36:06.349Z,8.10
2018-10-21T23:38:34.933Z,8.20
2018-10-21T23:41:03.515Z,8.20
2018-10-21T23:46:06.769Z,8.30
2018-10-21T23:48:35.276Z,8.30
2018-10-21T23:51:03.755Z,8.40
2018-10-21T23:53:32.192Z,8.40
2018-10-21T23:56:01.645Z,8.50
2018-10-21T23:58:31.051Z,8.60
